sensor_id;sensor_type;location;lat;lon;timestamp;P1;durP1;ratioP1;P2;durP2;ratioP2
22160;SDS011;49035;48.812;11.762;2024-02-04T00:02:07;2.25;;;1.77;;
22160;SDS011;49035;48.812;11.762;2024-02-04T00:04:34;1.60;;;1.50;;
22160;SDS011;49035;48.812;11.762;2024-02-04T00:07:00;1.58;;;1.48;;
22160;SDS011;49035;48.812;11.762;2024-02-04T00:09:29;2.20;;;1.95;;
22160;SDS011;49035;48.812;11.762;2024-02-04T00:11:55;1.65;;;1.40;;
22160;SDS011;49035;48.812;11.762;2024-02-04T00:14:20;1.70;;;1.40;;
22160;SDS011;49035;48.812;11.762;2024-02-04T00:16:46;3.83;;;1.60;;
22160;SDS011;49035;48.812;11.762;2024-02-04T00:19:12;1.52;;;1.17;;
22160;SDS011;49035;48.812;11.762;2024-02-04T00:21:37;2.17;;;1.63;;
22160;SDS011;49035;48.812;11.762;2024-02-04T00:24:03;2.03;;;1.58;;
22160;SDS011;49035;48.812;11.762;2024-02-04T00:26:28;1.70;;;1.60;;
22160;SDS011;49035;48.812;11.762;2024-02-04T00:28:54;2.28;;;1.85;;
22160;SDS011;49035;48.812;11.762;2024-02-04T00:31:19;1.98;;;1.50;;
22160;SDS011;49035;48.812;11.762;2024-02-04T00:33:45;2.17;;;1.98;;
22160;SDS011;49035;48.812;11.762;2024-02-04T00:36:11;1.75;;;1.65;;
22160;SDS011;49035;48.812;11.762;2024-02-04T00:38:36;1.85;;;1.75;;
22160;SDS011;49035;48.812;11.762;2024-02-04T00:41:02;2.60;;;1.88;;
22160;SDS011;49035;48.812;11.762;2024-02-04T00:43:28;2.00;;;1.80;;
22160;SDS011;49035;48.812;11.762;2024-02-04T00:45:54;2.95;;;1.75;;
22160;SDS011;49035;48.812;11.762;2024-02-04T00:48:21;2.55;;;1.77;;
22160;SDS011;49035;48.812;11.762;2024-02-04T00:50:47;2.10;;;1.88;;
22160;SDS011;49035;48.812;11.762;2024-02-04T00:53:12;2.40;;;1.95;;
22160;SDS011;49035;48.812;11.762;2024-02-04T00:55:38;2.35;;;1.90;;
22160;SDS011;49035;48.812;11.762;2024-02-04T00:58:04;2.67;;;2.20;;
22160;SDS011;49035;48.812;11.762;2024-02-04T01:00:29;2.78;;;2.15;;
22160;SDS011;49035;48.812;11.762;2024-02-04T01:02:55;3.40;;;2.63;;
22160;SDS011;49035;48.812;11.762;2024-02-04T01:05:20;3.08;;;2.13;;
22160;SDS011;49035;48.812;11.762;2024-02-04T01:07:46;3.83;;;2.53;;
22160;SDS011;49035;48.812;11.762;2024-02-04T01:10:12;2.75;;;2.40;;
22160;SDS011;49035;48.812;11.762;2024-02-04T01:12:37;3.05;;;2.58;;
22160;SDS011;49035;48.812;11.762;2024-02-04T01:15:03;2.63;;;2.40;;
22160;SDS011;49035;48.812;11.762;2024-02-04T01:17:30;3.08;;;2.78;;
22160;SDS011;49035;48.812;11.762;2024-02-04T01:19:56;3.15;;;2.63;;
22160;SDS011;49035;48.812;11.762;2024-02-04T01:22:21;3.75;;;2.70;;
22160;SDS011;49035;48.812;11.762;2024-02-04T01:24:52;5.32;;;3.15;;
22160;SDS011;49035;48.812;11.762;2024-02-04T01:27:18;2.88;;;2.58;;
22160;SDS011;49035;48.812;11.762;2024-02-04T01:29:44;4.28;;;3.10;;
22160;SDS011;49035;48.812;11.762;2024-02-04T01:32:09;4.07;;;2.92;;
22160;SDS011;49035;48.812;11.762;2024-02-04T01:34:35;3.58;;;2.58;;
22160;SDS011;49035;48.812;11.762;2024-02-04T01:37:00;3.40;;;2.95;;
22160;SDS011;49035;48.812;11.762;2024-02-04T01:39:26;3.72;;;2.70;;
22160;SDS011;49035;48.812;11.762;2024-02-04T01:41:51;3.08;;;2.78;;
22160;SDS011;49035;48.812;11.762;2024-02-04T01:44:17;3.35;;;2.90;;
22160;SDS011;49035;48.812;11.762;2024-02-04T01:46:44;3.72;;;2.47;;
22160;SDS011;49035;48.812;11.762;2024-02-04T01:49:10;3.22;;;2.70;;
22160;SDS011;49035;48.812;11.762;2024-02-04T01:51:35;3.38;;;2.42;;
22160;SDS011;49035;48.812;11.762;2024-02-04T01:54:02;2.80;;;2.42;;
22160;SDS011;49035;48.812;11.762;2024-02-04T01:56:28;3.30;;;2.70;;
22160;SDS011;49035;48.812;11.762;2024-02-04T01:58:55;2.90;;;2.25;;
22160;SDS011;49035;48.812;11.762;2024-02-04T02:01:21;3.10;;;2.38;;
22160;SDS011;49035;48.812;11.762;2024-02-04T02:03:48;2.47;;;2.08;;
22160;SDS011;49035;48.812;11.762;2024-02-04T02:06:15;2.85;;;2.30;;
22160;SDS011;49035;48.812;11.762;2024-02-04T02:08:41;4.07;;;2.38;;
22160;SDS011;49035;48.812;11.762;2024-02-04T02:11:31;2.85;;;2.50;;
22160;SDS011;49035;48.812;11.762;2024-02-04T02:14:03;3.22;;;2.38;;
22160;SDS011;49035;48.812;11.762;2024-02-04T02:16:32;2.35;;;2.15;;
22160;SDS011;49035;48.812;11.762;2024-02-04T02:19:11;4.15;;;2.30;;
22160;SDS011;49035;48.812;11.762;2024-02-04T02:22:06;2.47;;;1.95;;
22160;SDS011;49035;48.812;11.762;2024-02-04T02:24:53;2.92;;;2.00;;
22160;SDS011;49035;48.812;11.762;2024-02-04T02:27:24;2.67;;;2.05;;
22160;SDS011;49035;48.812;11.762;2024-02-04T02:29:50;2.78;;;2.40;;
22160;SDS011;49035;48.812;11.762;2024-02-04T02:32:16;3.13;;;2.60;;
22160;SDS011;49035;48.812;11.762;2024-02-04T02:34:43;2.10;;;1.90;;
22160;SDS011;49035;48.812;11.762;2024-02-04T02:42:33;2.08;;;1.75;;
22160;SDS011;49035;48.812;11.762;2024-02-04T02:45:01;4.80;;;2.20;;
22160;SDS011;49035;48.812;11.762;2024-02-04T02:47:28;2.25;;;2.05;;
22160;SDS011;49035;48.812;11.762;2024-02-04T02:49:54;2.13;;;1.92;;
22160;SDS011;49035;48.812;11.762;2024-02-04T02:52:20;2.38;;;2.10;;
22160;SDS011;49035;48.812;11.762;2024-02-04T02:54:46;2.97;;;2.42;;
22160;SDS011;49035;48.812;11.762;2024-02-04T02:57:12;2.50;;;1.95;;
22160;SDS011;49035;48.812;11.762;2024-02-04T02:59:38;4.75;;;2.17;;
22160;SDS011;49035;48.812;11.762;2024-02-04T03:02:03;2.55;;;1.90;;
22160;SDS011;49035;48.812;11.762;2024-02-04T03:04:29;1.70;;;1.50;;
22160;SDS011;49035;48.812;11.762;2024-02-04T03:06:54;1.77;;;1.67;;
22160;SDS011;49035;48.812;11.762;2024-02-04T03:09:20;2.00;;;1.80;;
22160;SDS011;49035;48.812;11.762;2024-02-04T03:11:45;2.47;;;2.00;;
22160;SDS011;49035;48.812;11.762;2024-02-04T03:14:11;2.60;;;2.13;;
22160;SDS011;49035;48.812;11.762;2024-02-04T03:16:39;2.53;;;1.80;;
22160;SDS011;49035;48.812;11.762;2024-02-04T03:19:05;2.25;;;1.80;;
22160;SDS011;49035;48.812;11.762;2024-02-04T03:21:31;3.33;;;1.83;;
22160;SDS011;49035;48.812;11.762;2024-02-04T03:23:56;2.05;;;1.80;;
22160;SDS011;49035;48.812;11.762;2024-02-04T03:26:22;3.60;;;1.90;;
22160;SDS011;49035;48.812;11.762;2024-02-04T03:28:47;2.22;;;1.90;;
22160;SDS011;49035;48.812;11.762;2024-02-04T03:31:19;3.75;;;1.95;;
22160;SDS011;49035;48.812;11.762;2024-02-04T03:33:48;2.15;;;1.95;;
22160;SDS011;49035;48.812;11.762;2024-02-04T03:36:21;3.92;;;1.80;;
22160;SDS011;49035;48.812;11.762;2024-02-04T03:38:48;3.13;;;2.10;;
22160;SDS011;49035;48.812;11.762;2024-02-04T03:41:15;2.63;;;2.00;;
22160;SDS011;49035;48.812;11.762;2024-02-04T03:43:40;2.10;;;1.90;;
22160;SDS011;49035;48.812;11.762;2024-02-04T03:46:06;3.65;;;2.13;;
22160;SDS011;49035;48.812;11.762;2024-02-04T03:48:31;3.42;;;1.88;;
22160;SDS011;49035;48.812;11.762;2024-02-04T03:50:58;1.98;;;1.73;;
22160;SDS011;49035;48.812;11.762;2024-02-04T03:53:24;2.33;;;1.90;;
22160;SDS011;49035;48.812;11.762;2024-02-04T03:55:50;2.75;;;1.98;;
22160;SDS011;49035;48.812;11.762;2024-02-04T03:58:17;2.00;;;1.80;;
22160;SDS011;49035;48.812;11.762;2024-02-04T04:00:44;2.92;;;2.08;;
22160;SDS011;49035;48.812;11.762;2024-02-04T04:03:10;3.40;;;1.90;;
22160;SDS011;49035;48.812;11.762;2024-02-04T04:05:36;2.47;;;1.90;;
22160;SDS011;49035;48.812;11.762;2024-02-04T04:08:01;2.67;;;1.80;;
22160;SDS011;49035;48.812;11.762;2024-02-04T04:10:27;1.90;;;1.80;;
22160;SDS011;49035;48.812;11.762;2024-02-04T04:12:52;2.70;;;1.90;;
22160;SDS011;49035;48.812;11.762;2024-02-04T04:15:18;3.90;;;2.08;;
22160;SDS011;49035;48.812;11.762;2024-02-04T04:17:43;3.67;;;2.83;;
22160;SDS011;49035;48.812;11.762;2024-02-04T04:20:09;4.53;;;2.28;;
22160;SDS011;49035;48.812;11.762;2024-02-04T04:22:35;3.08;;;2.38;;
22160;SDS011;49035;48.812;11.762;2024-02-04T04:25:03;2.72;;;1.90;;
22160;SDS011;49035;48.812;11.762;2024-02-04T04:27:29;3.83;;;2.08;;
22160;SDS011;49035;48.812;11.762;2024-02-04T04:29:54;2.45;;;2.03;;
22160;SDS011;49035;48.812;11.762;2024-02-04T04:32:20;5.35;;;2.83;;
22160;SDS011;49035;48.812;11.762;2024-02-04T04:34:45;5.75;;;2.63;;
22160;SDS011;49035;48.812;11.762;2024-02-04T04:37:11;3.63;;;2.80;;
22160;SDS011;49035;48.812;11.762;2024-02-04T04:39:36;3.65;;;2.78;;
22160;SDS011;49035;48.812;11.762;2024-02-04T04:42:02;3.33;;;2.92;;
22160;SDS011;49035;48.812;11.762;2024-02-04T04:44:28;3.75;;;2.45;;
22160;SDS011;49035;48.812;11.762;2024-02-04T04:46:53;2.08;;;1.88;;
22160;SDS011;49035;48.812;11.762;2024-02-04T04:49:19;2.50;;;1.95;;
22160;SDS011;49035;48.812;11.762;2024-02-04T04:51:45;3.88;;;2.17;;
22160;SDS011;49035;48.812;11.762;2024-02-04T04:54:14;4.13;;;2.50;;
22160;SDS011;49035;48.812;11.762;2024-02-04T04:56:39;2.50;;;1.80;;
22160;SDS011;49035;48.812;11.762;2024-02-04T04:59:08;2.65;;;2.17;;
22160;SDS011;49035;48.812;11.762;2024-02-04T05:01:34;2.42;;;1.98;;
22160;SDS011;49035;48.812;11.762;2024-02-04T05:04:00;2.80;;;2.30;;
22160;SDS011;49035;48.812;11.762;2024-02-04T05:06:25;2.70;;;2.22;;
22160;SDS011;49035;48.812;11.762;2024-02-04T05:08:51;2.30;;;2.10;;
22160;SDS011;49035;48.812;11.762;2024-02-04T05:11:17;3.97;;;2.63;;
22160;SDS011;49035;48.812;11.762;2024-02-04T05:13:43;2.63;;;2.42;;
22160;SDS011;49035;48.812;11.762;2024-02-04T05:16:08;2.80;;;2.50;;
22160;SDS011;49035;48.812;11.762;2024-02-04T05:18:34;6.03;;;2.60;;
22160;SDS011;49035;48.812;11.762;2024-02-04T05:21:02;4.03;;;2.33;;
22160;SDS011;49035;48.812;11.762;2024-02-04T05:23:29;3.30;;;2.58;;
22160;SDS011;49035;48.812;11.762;2024-02-04T05:25:54;2.92;;;2.45;;
22160;SDS011;49035;48.812;11.762;2024-02-04T05:28:20;3.40;;;2.55;;
22160;SDS011;49035;48.812;11.762;2024-02-04T05:30:45;2.97;;;2.38;;
22160;SDS011;49035;48.812;11.762;2024-02-04T05:33:14;4.57;;;2.45;;
22160;SDS011;49035;48.812;11.762;2024-02-04T05:35:41;3.08;;;2.50;;
22160;SDS011;49035;48.812;11.762;2024-02-04T05:38:08;3.58;;;2.67;;
22160;SDS011;49035;48.812;11.762;2024-02-04T05:40:34;3.28;;;2.33;;
22160;SDS011;49035;48.812;11.762;2024-02-04T05:42:59;3.47;;;2.67;;
22160;SDS011;49035;48.812;11.762;2024-02-04T05:45:30;2.80;;;2.45;;
22160;SDS011;49035;48.812;11.762;2024-02-04T05:47:56;3.17;;;2.38;;
22160;SDS011;49035;48.812;11.762;2024-02-04T05:50:22;2.80;;;2.50;;
22160;SDS011;49035;48.812;11.762;2024-02-04T05:52:47;3.53;;;2.42;;
22160;SDS011;49035;48.812;11.762;2024-02-04T05:55:14;3.67;;;2.85;;
22160;SDS011;49035;48.812;11.762;2024-02-04T05:57:39;3.25;;;2.80;;
22160;SDS011;49035;48.812;11.762;2024-02-04T06:00:05;4.78;;;3.10;;
22160;SDS011;49035;48.812;11.762;2024-02-04T06:02:37;3.33;;;2.78;;
22160;SDS011;49035;48.812;11.762;2024-02-04T06:05:02;3.45;;;2.70;;
22160;SDS011;49035;48.812;11.762;2024-02-04T06:07:28;4.35;;;3.05;;
22160;SDS011;49035;48.812;11.762;2024-02-04T06:09:54;3.33;;;2.80;;
22160;SDS011;49035;48.812;11.762;2024-02-04T06:12:25;3.47;;;2.90;;
22160;SDS011;49035;48.812;11.762;2024-02-04T06:14:50;4.50;;;3.20;;
22160;SDS011;49035;48.812;11.762;2024-02-04T06:17:16;4.97;;;2.92;;
22160;SDS011;49035;48.812;11.762;2024-02-04T06:19:41;3.45;;;2.67;;
22160;SDS011;49035;48.812;11.762;2024-02-04T06:22:07;3.40;;;2.80;;
22160;SDS011;49035;48.812;11.762;2024-02-04T06:24:33;3.67;;;2.78;;
22160;SDS011;49035;48.812;11.762;2024-02-04T06:26:58;3.97;;;3.15;;
22160;SDS011;49035;48.812;11.762;2024-02-04T06:29:24;3.75;;;2.80;;
22160;SDS011;49035;48.812;11.762;2024-02-04T06:31:49;4.00;;;3.10;;
22160;SDS011;49035;48.812;11.762;2024-02-04T06:34:15;4.03;;;3.10;;
22160;SDS011;49035;48.812;11.762;2024-02-04T06:36:44;6.53;;;2.40;;
22160;SDS011;49035;48.812;11.762;2024-02-04T06:39:10;3.10;;;2.67;;
22160;SDS011;49035;48.812;11.762;2024-02-04T06:41:36;4.03;;;2.92;;
22160;SDS011;49035;48.812;11.762;2024-02-04T06:44:04;5.18;;;2.70;;
22160;SDS011;49035;48.812;11.762;2024-02-04T06:46:30;3.55;;;2.47;;
22160;SDS011;49035;48.812;11.762;2024-02-04T06:48:56;4.15;;;2.53;;
22160;SDS011;49035;48.812;11.762;2024-02-04T06:51:22;3.25;;;2.78;;
22160;SDS011;49035;48.812;11.762;2024-02-04T06:53:47;3.90;;;2.70;;
22160;SDS011;49035;48.812;11.762;2024-02-04T06:56:13;4.07;;;2.75;;
22160;SDS011;49035;48.812;11.762;2024-02-04T06:58:39;3.15;;;2.85;;
22160;SDS011;49035;48.812;11.762;2024-02-04T07:01:06;3.22;;;2.30;;
22160;SDS011;49035;48.812;11.762;2024-02-04T07:03:31;3.05;;;2.58;;
22160;SDS011;49035;48.812;11.762;2024-02-04T07:05:58;3.40;;;2.50;;
22160;SDS011;49035;48.812;11.762;2024-02-04T07:08:24;2.80;;;2.40;;
22160;SDS011;49035;48.812;11.762;2024-02-04T07:10:50;2.85;;;2.33;;
22160;SDS011;49035;48.812;11.762;2024-02-04T07:13:16;5.53;;;2.28;;
22160;SDS011;49035;48.812;11.762;2024-02-04T07:15:42;2.83;;;2.30;;
22160;SDS011;49035;48.812;11.762;2024-02-04T07:18:07;2.45;;;2.05;;
22160;SDS011;49035;48.812;11.762;2024-02-04T07:20:33;2.97;;;2.22;;
22160;SDS011;49035;48.812;11.762;2024-02-04T07:22:59;4.97;;;2.20;;
22160;SDS011;49035;48.812;11.762;2024-02-04T07:25:24;3.95;;;2.33;;
22160;SDS011;49035;48.812;11.762;2024-02-04T07:27:50;2.72;;;2.25;;
22160;SDS011;49035;48.812;11.762;2024-02-04T07:30:16;2.63;;;2.42;;
22160;SDS011;49035;48.812;11.762;2024-02-04T07:32:42;2.75;;;2.10;;
22160;SDS011;49035;48.812;11.762;2024-02-04T07:35:07;3.05;;;2.10;;
22160;SDS011;49035;48.812;11.762;2024-02-04T07:37:34;3.38;;;2.50;;
22160;SDS011;49035;48.812;11.762;2024-02-04T07:40:00;2.28;;;2.05;;
22160;SDS011;49035;48.812;11.762;2024-02-04T07:42:26;2.75;;;2.20;;
22160;SDS011;49035;48.812;11.762;2024-02-04T07:44:52;2.60;;;2.17;;
22160;SDS011;49035;48.812;11.762;2024-02-04T07:47:18;4.00;;;2.63;;
22160;SDS011;49035;48.812;11.762;2024-02-04T07:49:46;3.10;;;2.30;;
22160;SDS011;49035;48.812;11.762;2024-02-04T07:52:12;2.80;;;2.22;;
22160;SDS011;49035;48.812;11.762;2024-02-04T07:54:37;2.17;;;1.98;;
22160;SDS011;49035;48.812;11.762;2024-02-04T07:57:03;2.90;;;2.38;;
22160;SDS011;49035;48.812;11.762;2024-02-04T07:59:29;2.80;;;2.20;;
22160;SDS011;49035;48.812;11.762;2024-02-04T08:01:54;3.65;;;2.28;;
22160;SDS011;49035;48.812;11.762;2024-02-04T08:04:20;2.85;;;2.00;;
22160;SDS011;49035;48.812;11.762;2024-02-04T08:06:46;3.20;;;2.45;;
22160;SDS011;49035;48.812;11.762;2024-02-04T08:09:11;2.33;;;2.08;;
22160;SDS011;49035;48.812;11.762;2024-02-04T08:11:37;3.33;;;2.60;;
22160;SDS011;49035;48.812;11.762;2024-02-04T08:14:03;3.38;;;2.42;;
22160;SDS011;49035;48.812;11.762;2024-02-04T08:16:28;2.45;;;1.65;;
22160;SDS011;49035;48.812;11.762;2024-02-04T08:18:54;3.60;;;2.53;;
22160;SDS011;49035;48.812;11.762;2024-02-04T08:21:20;3.80;;;2.40;;
22160;SDS011;49035;48.812;11.762;2024-02-04T08:23:45;3.63;;;2.47;;
22160;SDS011;49035;48.812;11.762;2024-02-04T08:26:11;2.58;;;2.28;;
22160;SDS011;49035;48.812;11.762;2024-02-04T08:28:36;3.10;;;2.70;;
22160;SDS011;49035;48.812;11.762;2024-02-04T08:31:02;3.90;;;2.70;;
22160;SDS011;49035;48.812;11.762;2024-02-04T08:33:28;3.28;;;2.55;;
22160;SDS011;49035;48.812;11.762;2024-02-04T08:35:53;3.63;;;2.35;;
22160;SDS011;49035;48.812;11.762;2024-02-04T08:38:19;3.72;;;2.63;;
22160;SDS011;49035;48.812;11.762;2024-02-04T08:40:44;3.08;;;2.33;;
22160;SDS011;49035;48.812;11.762;2024-02-04T08:43:10;4.53;;;2.88;;
22160;SDS011;49035;48.812;11.762;2024-02-04T08:45:35;5.00;;;2.30;;
22160;SDS011;49035;48.812;11.762;2024-02-04T08:48:01;3.28;;;2.47;;
22160;SDS011;49035;48.812;11.762;2024-02-04T08:50:27;2.85;;;2.35;;
22160;SDS011;49035;48.812;11.762;2024-02-04T08:52:54;3.67;;;2.72;;
22160;SDS011;49035;48.812;11.762;2024-02-04T08:55:19;3.13;;;2.33;;
22160;SDS011;49035;48.812;11.762;2024-02-04T08:57:45;3.03;;;2.60;;
22160;SDS011;49035;48.812;11.762;2024-02-04T09:00:13;3.65;;;2.42;;
22160;SDS011;49035;48.812;11.762;2024-02-04T09:02:39;3.20;;;2.70;;
22160;SDS011;49035;48.812;11.762;2024-02-04T09:05:05;3.75;;;2.78;;
22160;SDS011;49035;48.812;11.762;2024-02-04T09:07:31;3.35;;;2.58;;
22160;SDS011;49035;48.812;11.762;2024-02-04T09:09:56;6.47;;;2.70;;
22160;SDS011;49035;48.812;11.762;2024-02-04T09:12:22;3.00;;;2.40;;
22160;SDS011;49035;48.812;11.762;2024-02-04T09:14:48;3.67;;;2.75;;
22160;SDS011;49035;48.812;11.762;2024-02-04T09:17:13;3.75;;;2.72;;
22160;SDS011;49035;48.812;11.762;2024-02-04T09:19:39;3.90;;;2.50;;
22160;SDS011;49035;48.812;11.762;2024-02-04T09:22:05;3.08;;;2.78;;
22160;SDS011;49035;48.812;11.762;2024-02-04T09:24:30;3.15;;;2.35;;
22160;SDS011;49035;48.812;11.762;2024-02-04T09:26:56;3.78;;;2.53;;
22160;SDS011;49035;48.812;11.762;2024-02-04T09:29:22;4.97;;;2.70;;
22160;SDS011;49035;48.812;11.762;2024-02-04T09:31:47;4.15;;;2.95;;
22160;SDS011;49035;48.812;11.762;2024-02-04T09:34:14;3.63;;;2.63;;
22160;SDS011;49035;48.812;11.762;2024-02-04T09:36:40;5.05;;;2.72;;
22160;SDS011;49035;48.812;11.762;2024-02-04T09:39:06;5.35;;;2.63;;
22160;SDS011;49035;48.812;11.762;2024-02-04T09:41:32;3.08;;;2.78;;
22160;SDS011;49035;48.812;11.762;2024-02-04T09:43:58;4.13;;;2.75;;
22160;SDS011;49035;48.812;11.762;2024-02-04T09:46:26;2.63;;;2.03;;
22160;SDS011;49035;48.812;11.762;2024-02-04T09:48:52;5.60;;;2.90;;
22160;SDS011;49035;48.812;11.762;2024-02-04T09:51:20;2.78;;;2.35;;
22160;SDS011;49035;48.812;11.762;2024-02-04T09:53:45;2.50;;;2.30;;
22160;SDS011;49035;48.812;11.762;2024-02-04T09:56:17;2.47;;;2.25;;
22160;SDS011;49035;48.812;11.762;2024-02-04T09:58:43;4.75;;;2.30;;
22160;SDS011;49035;48.812;11.762;2024-02-04T10:01:09;2.08;;;1.88;;
22160;SDS011;49035;48.812;11.762;2024-02-04T10:03:36;3.30;;;2.30;;
22160;SDS011;49035;48.812;11.762;2024-02-04T10:06:02;2.40;;;2.20;;
22160;SDS011;49035;48.812;11.762;2024-02-04T10:08:28;2.20;;;2.00;;
22160;SDS011;49035;48.812;11.762;2024-02-04T10:10:53;3.35;;;2.17;;
22160;SDS011;49035;48.812;11.762;2024-02-04T10:13:19;3.70;;;2.50;;
22160;SDS011;49035;48.812;11.762;2024-02-04T10:15:47;4.72;;;2.30;;
22160;SDS011;49035;48.812;11.762;2024-02-04T10:18:13;2.67;;;2.20;;
22160;SDS011;49035;48.812;11.762;2024-02-04T10:20:39;4.43;;;2.38;;
22160;SDS011;49035;48.812;11.762;2024-02-04T10:23:04;2.65;;;2.00;;
22160;SDS011;49035;48.812;11.762;2024-02-04T10:25:30;3.25;;;2.25;;
22160;SDS011;49035;48.812;11.762;2024-02-04T10:27:56;2.78;;;2.35;;
22160;SDS011;49035;48.812;11.762;2024-02-04T10:30:23;3.53;;;2.15;;
22160;SDS011;49035;48.812;11.762;2024-02-04T10:32:52;2.65;;;1.98;;
22160;SDS011;49035;48.812;11.762;2024-02-04T10:35:21;3.13;;;2.20;;
22160;SDS011;49035;48.812;11.762;2024-02-04T10:37:48;3.17;;;2.17;;
22160;SDS011;49035;48.812;11.762;2024-02-04T10:40:15;2.35;;;2.15;;
22160;SDS011;49035;48.812;11.762;2024-02-04T10:42:42;2.40;;;2.10;;
22160;SDS011;49035;48.812;11.762;2024-02-04T10:45:09;4.30;;;2.30;;
22160;SDS011;49035;48.812;11.762;2024-02-04T10:47:37;2.10;;;1.90;;
22160;SDS011;49035;48.812;11.762;2024-02-04T10:50:03;4.05;;;2.20;;
22160;SDS011;49035;48.812;11.762;2024-02-04T10:52:32;2.30;;;2.10;;
22160;SDS011;49035;48.812;11.762;2024-02-04T10:55:08;2.67;;;2.47;;
22160;SDS011;49035;48.812;11.762;2024-02-04T10:57:35;3.95;;;2.50;;
22160;SDS011;49035;48.812;11.762;2024-02-04T11:00:02;2.30;;;2.10;;
22160;SDS011;49035;48.812;11.762;2024-02-04T11:02:33;3.70;;;1.98;;
22160;SDS011;49035;48.812;11.762;2024-02-04T11:04:59;4.88;;;4.22;;
22160;SDS011;49035;48.812;11.762;2024-02-04T11:07:28;3.10;;;2.22;;
22160;SDS011;49035;48.812;11.762;2024-02-04T11:10:01;2.45;;;1.80;;
22160;SDS011;49035;48.812;11.762;2024-02-04T11:12:28;3.03;;;2.28;;
22160;SDS011;49035;48.812;11.762;2024-02-04T11:14:58;2.40;;;2.10;;
22160;SDS011;49035;48.812;11.762;2024-02-04T11:17:40;2.53;;;2.10;;
22160;SDS011;49035;48.812;11.762;2024-02-04T11:25:49;2.15;;;1.90;;
22160;SDS011;49035;48.812;11.762;2024-02-04T11:28:18;2.63;;;1.63;;
22160;SDS011;49035;48.812;11.762;2024-02-04T11:30:46;2.58;;;2.38;;
22160;SDS011;49035;48.812;11.762;2024-02-04T11:33:13;3.15;;;1.83;;
22160;SDS011;49035;48.812;11.762;2024-02-04T11:35:42;2.85;;;2.03;;
22160;SDS011;49035;48.812;11.762;2024-02-04T11:38:07;2.47;;;1.95;;
22160;SDS011;49035;48.812;11.762;2024-02-04T11:40:34;2.53;;;2.00;;
22160;SDS011;49035;48.812;11.762;2024-02-04T11:43:10;2.38;;;1.65;;
22160;SDS011;49035;48.812;11.762;2024-02-04T11:45:37;2.38;;;1.90;;
22160;SDS011;49035;48.812;11.762;2024-02-04T11:48:06;4.43;;;1.80;;
22160;SDS011;49035;48.812;11.762;2024-02-04T11:50:33;2.35;;;1.67;;
22160;SDS011;49035;48.812;11.762;2024-02-04T11:53:06;2.15;;;1.85;;
22160;SDS011;49035;48.812;11.762;2024-02-04T11:55:34;2.20;;;1.75;;
22160;SDS011;49035;48.812;11.762;2024-02-04T11:58:04;3.28;;;1.77;;
22160;SDS011;49035;48.812;11.762;2024-02-04T12:00:34;2.15;;;1.95;;
22160;SDS011;49035;48.812;11.762;2024-02-04T12:03:01;2.42;;;1.73;;
22160;SDS011;49035;48.812;11.762;2024-02-04T12:05:37;4.07;;;2.30;;
22160;SDS011;49035;48.812;11.762;2024-02-04T12:08:04;1.75;;;1.65;;
22160;SDS011;49035;48.812;11.762;2024-02-04T12:10:31;1.92;;;1.70;;
22160;SDS011;49035;48.812;11.762;2024-02-04T12:13:05;2.17;;;1.58;;
22160;SDS011;49035;48.812;11.762;2024-02-04T12:15:34;2.47;;;1.77;;
22160;SDS011;49035;48.812;11.762;2024-02-04T12:18:10;2.70;;;1.75;;
22160;SDS011;49035;48.812;11.762;2024-02-04T12:20:37;1.60;;;1.45;;
22160;SDS011;49035;48.812;11.762;2024-02-04T12:23:03;2.33;;;1.95;;
22160;SDS011;49035;48.812;11.762;2024-02-04T12:25:29;2.08;;;1.75;;
22160;SDS011;49035;48.812;11.762;2024-02-04T12:27:57;2.55;;;1.80;;
22160;SDS011;49035;48.812;11.762;2024-02-04T12:30:24;2.20;;;1.58;;
22160;SDS011;49035;48.812;11.762;2024-02-04T12:33:03;2.30;;;1.50;;
22160;SDS011;49035;48.812;11.762;2024-02-04T12:35:31;2.05;;;1.70;;
22160;SDS011;49035;48.812;11.762;2024-02-04T12:37:57;1.77;;;1.55;;
22160;SDS011;49035;48.812;11.762;2024-02-04T12:40:24;1.60;;;1.50;;
22160;SDS011;49035;48.812;11.762;2024-02-04T12:42:55;2.58;;;1.85;;
22160;SDS011;49035;48.812;11.762;2024-02-04T12:45:22;1.55;;;1.42;;
22160;SDS011;49035;48.812;11.762;2024-02-04T12:47:49;2.35;;;1.55;;
22160;SDS011;49035;48.812;11.762;2024-02-04T12:50:18;2.00;;;1.75;;
22160;SDS011;49035;48.812;11.762;2024-02-04T12:52:45;1.60;;;1.50;;
22160;SDS011;49035;48.812;11.762;2024-02-04T12:55:24;2.95;;;2.33;;
22160;SDS011;49035;48.812;11.762;2024-02-04T13:00:39;7.40;;;5.20;;
22160;SDS011;49035;48.812;11.762;2024-02-04T13:03:05;4.53;;;3.45;;
22160;SDS011;49035;48.812;11.762;2024-02-04T13:05:36;3.72;;;3.38;;
22160;SDS011;49035;48.812;11.762;2024-02-04T13:08:02;3.45;;;2.75;;
22160;SDS011;49035;48.812;11.762;2024-02-04T13:10:34;1.95;;;1.83;;
22160;SDS011;49035;48.812;11.762;2024-02-04T13:13:04;2.10;;;1.90;;
22160;SDS011;49035;48.812;11.762;2024-02-04T13:15:36;2.85;;;1.77;;
22160;SDS011;49035;48.812;11.762;2024-02-04T13:18:04;1.88;;;1.67;;
22160;SDS011;49035;48.812;11.762;2024-02-04T13:20:30;2.80;;;1.73;;
22160;SDS011;49035;48.812;11.762;2024-02-04T13:22:55;2.95;;;1.80;;
22160;SDS011;49035;48.812;11.762;2024-02-04T13:25:23;2.08;;;1.50;;
22160;SDS011;49035;48.812;11.762;2024-02-04T13:27:49;1.55;;;1.35;;
22160;SDS011;49035;48.812;11.762;2024-02-04T13:30:18;3.03;;;1.30;;
22160;SDS011;49035;48.812;11.762;2024-02-04T13:32:44;1.60;;;1.33;;
22160;SDS011;49035;48.812;11.762;2024-02-04T13:35:10;2.88;;;1.42;;
22160;SDS011;49035;48.812;11.762;2024-02-04T13:37:36;1.77;;;1.52;;
22160;SDS011;49035;48.812;11.762;2024-02-04T13:40:03;1.48;;;1.38;;
22160;SDS011;49035;48.812;11.762;2024-02-04T13:42:31;1.83;;;1.60;;
22160;SDS011;49035;48.812;11.762;2024-02-04T13:44:57;2.97;;;1.35;;
22160;SDS011;49035;48.812;11.762;2024-02-04T13:47:22;2.70;;;1.20;;
22160;SDS011;49035;48.812;11.762;2024-02-04T13:49:48;1.63;;;1.27;;
22160;SDS011;49035;48.812;11.762;2024-02-04T13:52:13;1.70;;;1.27;;
22160;SDS011;49035;48.812;11.762;2024-02-04T13:54:39;2.22;;;1.30;;
22160;SDS011;49035;48.812;11.762;2024-02-04T13:57:04;1.40;;;1.30;;
22160;SDS011;49035;48.812;11.762;2024-02-04T13:59:30;1.35;;;1.25;;
22160;SDS011;49035;48.812;11.762;2024-02-04T14:01:56;2.55;;;1.35;;
22160;SDS011;49035;48.812;11.762;2024-02-04T14:04:21;1.50;;;1.40;;
22160;SDS011;49035;48.812;11.762;2024-02-04T14:06:47;1.30;;;1.20;;
22160;SDS011;49035;48.812;11.762;2024-02-04T14:09:12;1.40;;;1.30;;
22160;SDS011;49035;48.812;11.762;2024-02-04T14:11:38;1.13;;;1.02;;
22160;SDS011;49035;48.812;11.762;2024-02-04T14:14:04;1.67;;;1.35;;
22160;SDS011;49035;48.812;11.762;2024-02-04T14:16:29;1.20;;;1.10;;
22160;SDS011;49035;48.812;11.762;2024-02-04T14:18:55;1.20;;;1.10;;
22160;SDS011;49035;48.812;11.762;2024-02-04T14:21:20;1.33;;;1.23;;
22160;SDS011;49035;48.812;11.762;2024-02-04T14:23:46;1.33;;;1.20;;
22160;SDS011;49035;48.812;11.762;2024-02-04T14:26:18;1.30;;;1.20;;
22160;SDS011;49035;48.812;11.762;2024-02-04T14:28:45;2.17;;;1.20;;
22160;SDS011;49035;48.812;11.762;2024-02-04T14:31:10;3.17;;;1.40;;
22160;SDS011;49035;48.812;11.762;2024-02-04T14:33:36;1.35;;;1.25;;
22160;SDS011;49035;48.812;11.762;2024-02-04T14:36:02;1.63;;;1.30;;
22160;SDS011;49035;48.812;11.762;2024-02-04T14:38:28;1.30;;;1.20;;
22160;SDS011;49035;48.812;11.762;2024-02-04T14:40:56;1.70;;;1.40;;
22160;SDS011;49035;48.812;11.762;2024-02-04T14:43:22;1.42;;;1.30;;
22160;SDS011;49035;48.812;11.762;2024-02-04T14:45:48;2.28;;;1.25;;